sensor_id;sensor_type;location;lat;lon;timestamp;pressure;altitude;pressure_sealevel;temperature;humidity
53011;BME280;42803;55.762;38.084;2023-12-28T00:00:43;98615.69;;;-3.31;100.00
53011;BME280;42803;55.762;38.084;2023-12-28T00:03:13;98613.66;;;-3.26;100.00
53011;BME280;42803;55.762;38.084;2023-12-28T00:05:42;98634.22;;;-3.17;100.00
53011;BME280;42803;55.762;38.084;2023-12-28T00:08:11;98624.38;;;-3.14;100.00
53011;BME280;42803;55.762;38.084;2023-12-28T00:10:41;98628.72;;;-3.13;100.00
53011;BME280;42803;55.762;38.084;2023-12-28T00:13:10;98631.66;;;-3.17;100.00
53011;BME280;42803;55.762;38.084;2023-12-28T00:15:40;98634.56;;;-3.07;100.00
53011;BME280;42803;55.762;38.084;2023-12-28T00:18:10;98646.19;;;-3.02;100.00
53011;BME280;42803;55.762;38.084;2023-12-28T00:20:40;98646.41;;;-3.08;100.00
53011;BME280;42803;55.762;38.084;2023-12-28T00:23:09;98649.72;;;-3.09;100.00
53011;BME280;42803;55.762;38.084;2023-12-28T00:25:38;98647.69;;;-3.11;100.00
53011;BME280;42803;55.762;38.084;2023-12-28T00:28:07;98652.09;;;-3.17;100.00
53011;BME280;42803;55.762;38.084;2023-12-28T00:30:36;98658.31;;;-3.23;100.00
53011;BME280;42803;55.762;38.084;2023-12-28T00:33:07;98650.50;;;-3.31;100.00
53011;BME280;42803;55.762;38.084;2023-12-28T00:35:36;98658.72;;;-3.34;100.00
53011;BME280;42803;55.762;38.084;2023-12-28T00:38:06;98654.75;;;-3.46;100.00
53011;BME280;42803;55.762;38.084;2023-12-28T00:40:35;98648.91;;;-3.52;100.00
53011;BME280;42803;55.762;38.084;2023-12-28T00:43:04;98655.88;;;-3.58;100.00
53011;BME280;42803;55.762;38.084;2023-12-28T00:45:33;98659.50;;;-3.63;100.00
53011;BME280;42803;55.762;38.084;2023-12-28T00:48:04;98660.97;;;-3.65;100.00
53011;BME280;42803;55.762;38.084;2023-12-28T00:50:35;98667.50;;;-3.53;100.00
53011;BME280;42803;55.762;38.084;2023-12-28T00:53:04;98668.25;;;-3.47;100.00
53011;BME280;42803;55.762;38.084;2023-12-28T00:55:34;98678.41;;;-3.40;100.00
53011;BME280;42803;55.762;38.084;2023-12-28T00:58:03;98682.56;;;-3.33;100.00
53011;BME280;42803;55.762;38.084;2023-12-28T01:00:33;98676.19;;;-3.30;100.00
53011;BME280;42803;55.762;38.084;2023-12-28T01:03:02;98681.81;;;-3.25;100.00
53011;BME280;42803;55.762;38.084;2023-12-28T01:05:31;98674.53;;;-3.29;100.00
53011;BME280;42803;55.762;38.084;2023-12-28T01:08:02;98680.03;;;-3.40;100.00
53011;BME280;42803;55.762;38.084;2023-12-28T01:10:32;98694.44;;;-3.41;100.00
53011;BME280;42803;55.762;38.084;2023-12-28T01:13:01;98694.81;;;-3.45;100.00
53011;BME280;42803;55.762;38.084;2023-12-28T01:15:30;98691.00;;;-3.49;100.00
53011;BME280;42803;55.762;38.084;2023-12-28T01:17:59;98693.00;;;-3.46;100.00
53011;BME280;42803;55.762;38.084;2023-12-28T01:20:30;98698.84;;;-3.47;100.00
53011;BME280;42803;55.762;38.084;2023-12-28T01:22:59;98697.00;;;-3.48;100.00
53011;BME280;42803;55.762;38.084;2023-12-28T01:25:30;98694.47;;;-3.55;100.00
53011;BME280;42803;55.762;38.084;2023-12-28T01:27:59;98706.84;;;-3.51;100.00
53011;BME280;42803;55.762;38.084;2023-12-28T01:30:29;98702.84;;;-3.49;100.00
53011;BME280;42803;55.762;38.084;2023-12-28T01:32:58;98705.75;;;-3.46;100.00
53011;BME280;42803;55.762;38.084;2023-12-28T01:35:27;98704.28;;;-3.44;100.00
53011;BME280;42803;55.762;38.084;2023-12-28T01:37:56;98695.56;;;-3.46;100.00
53011;BME280;42803;55.762;38.084;2023-12-28T01:40:29;98693.53;;;-3.49;100.00
53011;BME280;42803;55.762;38.084;2023-12-28T01:42:58;98698.84;;;-3.47;100.00
53011;BME280;42803;55.762;38.084;2023-12-28T01:45:28;98707.03;;;-3.42;100.00
53011;BME280;42803;55.762;38.084;2023-12-28T01:47:57;98700.44;;;-3.40;100.00
53011;BME280;42803;55.762;38.084;2023-12-28T01:50:29;98705.94;;;-3.45;100.00
53011;BME280;42803;55.762;38.084;2023-12-28T01:53:00;98698.63;;;-3.41;100.00
53011;BME280;42803;55.762;38.084;2023-12-28T01:55:33;98707.03;;;-3.42;100.00
53011;BME280;42803;55.762;38.084;2023-12-28T01:58:03;98704.28;;;-3.44;100.00
53011;BME280;42803;55.762;38.084;2023-12-28T02:00:32;98707.94;;;-3.42;100.00
53011;BME280;42803;55.762;38.084;2023-12-28T02:03:06;98713.75;;;-3.36;100.00
53011;BME280;42803;55.762;38.084;2023-12-28T02:05:35;98714.09;;;-3.26;100.00
53011;BME280;42803;55.762;38.084;2023-12-28T02:08:05;98712.28;;;-3.27;100.00
53011;BME280;42803;55.762;38.084;2023-12-28T02:10:35;98716.25;;;-3.22;100.00
53011;BME280;42803;55.762;38.084;2023-12-28T02:13:05;98718.81;;;-3.22;100.00
53011;BME280;42803;55.762;38.084;2023-12-28T02:15:34;98726.31;;;-3.23;100.00
53011;BME280;42803;55.762;38.084;2023-12-28T02:18:07;98731.94;;;-3.26;100.00
53011;BME280;42803;55.762;38.084;2023-12-28T02:20:38;98733.06;;;-3.31;100.00
53011;BME280;42803;55.762;38.084;2023-12-28T02:23:09;98732.47;;;-3.21;100.00
53011;BME280;42803;55.762;38.084;2023-12-28T02:25:40;98733.06;;;-3.24;100.00
53011;BME280;42803;55.762;38.084;2023-12-28T02:28:09;98734.84;;;-3.15;100.00
53011;BME280;42803;55.762;38.084;2023-12-28T02:30:38;98731.03;;;-3.19;100.00
53011;BME280;42803;55.762;38.084;2023-12-28T02:33:12;98729.75;;;-3.15;100.00
53011;BME280;42803;55.762;38.084;2023-12-28T02:35:48;98739.06;;;-3.16;100.00
53011;BME280;42803;55.762;38.084;2023-12-28T02:38:21;98744.34;;;-3.22;100.00
53011;BME280;42803;55.762;38.084;2023-12-28T02:40:54;98742.38;;;-3.24;100.00
53011;BME280;42803;55.762;38.084;2023-12-28T02:43:24;98737.78;;;-3.20;100.00
53011;BME280;42803;55.762;38.084;2023-12-28T02:45:53;98743.97;;;-3.25;100.00
53011;BME280;42803;55.762;38.084;2023-12-28T02:48:23;98756.34;;;-3.21;100.00
53011;BME280;42803;55.762;38.084;2023-12-28T02:50:53;98748.00;;;-3.20;100.00
53011;BME280;42803;55.762;38.084;2023-12-28T02:53:23;98734.13;;;-3.22;100.00
53011;BME280;42803;55.762;38.084;2023-12-28T02:55:53;98745.44;;;-3.27;100.00
53011;BME280;42803;55.762;38.084;2023-12-28T02:58:22;98741.81;;;-3.36;100.00
53011;BME280;42803;55.762;38.084;2023-12-28T03:00:51;98743.66;;;-3.42;100.00
53011;BME280;42803;55.762;38.084;2023-12-28T03:03:22;98748.56;;;-3.44;100.00
53011;BME280;42803;55.762;38.084;2023-12-28T03:05:52;98747.09;;;-3.41;100.00
53011;BME280;42803;55.762;38.084;2023-12-28T03:08:21;98752.38;;;-3.40;100.00
53011;BME280;42803;55.762;38.084;2023-12-28T03:10:50;98760.22;;;-3.38;100.00
53011;BME280;42803;55.762;38.084;2023-12-28T03:13:22;98759.66;;;-3.36;100.00
53011;BME280;42803;55.762;38.084;2023-12-28T03:15:51;98764.97;;;-3.27;100.00
53011;BME280;42803;55.762;38.084;2023-12-28T03:18:20;98768.41;;;-3.20;100.00
53011;BME280;42803;55.762;38.084;2023-12-28T03:20:49;98773.31;;;-3.14;100.00
53011;BME280;42803;55.762;38.084;2023-12-28T03:23:19;98776.75;;;-3.06;100.00
53011;BME280;42803;55.762;38.084;2023-12-28T03:25:48;98772.75;;;-3.04;100.00
53011;BME280;42803;55.762;38.084;2023-12-28T03:28:17;98773.50;;;-3.12;100.00
53011;BME280;42803;55.762;38.084;2023-12-28T03:30:48;98767.47;;;-3.13;100.00
53011;BME280;42803;55.762;38.084;2023-12-28T03:33:17;98771.13;;;-3.04;100.00
53011;BME280;42803;55.762;38.084;2023-12-28T03:35:47;98779.50;;;-3.05;100.00
53011;BME280;42803;55.762;38.084;2023-12-28T03:38:16;98781.50;;;-3.09;100.00
53011;BME280;42803;55.762;38.084;2023-12-28T03:40:45;98785.69;;;-3.10;100.00
53011;BME280;42803;55.762;38.084;2023-12-28T03:43:17;98782.59;;;-3.14;100.00
53011;BME280;42803;55.762;38.084;2023-12-28T03:45:47;98784.63;;;-3.12;100.00
53011;BME280;42803;55.762;38.084;2023-12-28T03:48:16;98776.06;;;-3.12;100.00
53011;BME280;42803;55.762;38.084;2023-12-28T03:50:46;98775.31;;;-3.19;100.00
53011;BME280;42803;55.762;38.084;2023-12-28T03:53:15;98777.34;;;-3.23;100.00
53011;BME280;42803;55.762;38.084;2023-12-28T03:55:44;98782.25;;;-3.25;100.00
53011;BME280;42803;55.762;38.084;2023-12-28T03:58:13;98776.06;;;-3.20;100.00
53011;BME280;42803;55.762;38.084;2023-12-28T04:00:42;98776.78;;;-3.21;100.00
53011;BME280;42803;55.762;38.084;2023-12-28T04:03:13;98783.00;;;-3.26;100.00
53011;BME280;42803;55.762;38.084;2023-12-28T04:05:43;98781.72;;;-3.29;100.00
53011;BME280;42803;55.762;38.084;2023-12-28T04:08:12;98795.03;;;-3.32;100.00
53011;BME280;42803;55.762;38.084;2023-12-28T04:10:41;98797.56;;;-3.25;100.00
53011;BME280;42803;55.762;38.084;2023-12-28T04:13:11;98805.94;;;-3.19;100.00
53011;BME280;42803;55.762;38.084;2023-12-28T04:15:41;98808.88;;;-3.15;100.00
53011;BME280;42803;55.762;38.084;2023-12-28T04:18:10;98802.66;;;-3.17;100.00
53011;BME280;42803;55.762;38.084;2023-12-28T04:20:43;98808.13;;;-3.22;100.00
53011;BME280;42803;55.762;38.084;2023-12-28T04:23:13;98809.97;;;-3.28;100.00
53011;BME280;42803;55.762;38.084;2023-12-28T04:25:43;98813.25;;;-3.29;100.00
53011;BME280;42803;55.762;38.084;2023-12-28T04:28:12;98812.91;;;-3.39;100.00
53011;BME280;42803;55.762;38.084;2023-12-28T04:30:42;98812.53;;;-3.42;100.00
53011;BME280;42803;55.762;38.084;2023-12-28T04:33:11;98815.47;;;-3.39;100.00
53011;BME280;42803;55.762;38.084;2023-12-28T04:35:42;98812.00;;;-3.39;100.00
53011;BME280;42803;55.762;38.084;2023-12-28T04:38:12;98804.88;;;-3.49;100.00
53011;BME280;42803;55.762;38.084;2023-12-28T04:40:43;98805.25;;;-3.53;100.00
53011;BME280;42803;55.762;38.084;2023-12-28T04:43:12;98801.56;;;-3.55;100.00
53011;BME280;42803;55.762;38.084;2023-12-28T04:45:42;98812.16;;;-3.52;100.00
53011;BME280;42803;55.762;38.084;2023-12-28T04:48:11;98816.72;;;-3.57;100.00
53011;BME280;42803;55.762;38.084;2023-12-28T04:50:42;98810.88;;;-3.56;100.00
53011;BME280;42803;55.762;38.084;2023-12-28T04:53:13;98812.53;;;-3.49;100.00
53011;BME280;42803;55.762;38.084;2023-12-28T04:55:43;98819.44;;;-3.48;100.00
53011;BME280;42803;55.762;38.084;2023-12-28T04:58:13;98821.63;;;-3.44;100.00
53011;BME280;42803;55.762;38.084;2023-12-28T05:00:42;98824.75;;;-3.39;100.00
53011;BME280;42803;55.762;38.084;2023-12-28T05:03:11;98819.66;;;-3.39;100.00
53011;BME280;42803;55.762;38.084;2023-12-28T05:05:40;98818.72;;;-3.40;100.00
53011;BME280;42803;55.762;38.084;2023-12-28T05:08:11;98826.38;;;-3.33;100.00
53011;BME280;42803;55.762;38.084;2023-12-28T05:10:40;98823.81;;;-3.26;100.00
53011;BME280;42803;55.762;38.084;2023-12-28T05:13:09;98828.56;;;-3.29;100.00
53011;BME280;42803;55.762;38.084;2023-12-28T05:15:39;98837.84;;;-3.22;100.00
53011;BME280;42803;55.762;38.084;2023-12-28T05:18:08;98831.47;;;-3.19;100.00
53011;BME280;42803;55.762;38.084;2023-12-28T05:20:37;98831.84;;;-3.15;100.00
53011;BME280;42803;55.762;38.084;2023-12-28T05:23:07;98836.56;;;-3.19;100.00
53011;BME280;42803;55.762;38.084;2023-12-28T05:25:38;98838.03;;;-3.21;100.00
53011;BME280;42803;55.762;38.084;2023-12-28T05:28:07;98835.84;;;-3.25;100.00
53011;BME280;42803;55.762;38.084;2023-12-28T05:30:36;98841.31;;;-3.22;100.00
53011;BME280;42803;55.762;38.084;2023-12-28T05:33:05;98838.22;;;-3.19;100.00
53011;BME280;42803;55.762;38.084;2023-12-28T05:35:35;98846.41;;;-3.14;100.00
53011;BME280;42803;55.762;38.084;2023-12-28T05:38:04;98847.16;;;-3.15;100.00
53011;BME280;42803;55.762;38.084;2023-12-28T05:40:33;98854.44;;;-3.11;100.00
53011;BME280;42803;55.762;38.084;2023-12-28T05:43:04;98856.25;;;-3.10;100.00
53011;BME280;42803;55.762;38.084;2023-12-28T05:45:33;98855.88;;;-3.06;100.00
53011;BME280;42803;55.762;38.084;2023-12-28T05:48:03;98858.44;;;-3.06;100.00
53011;BME280;42803;55.762;38.084;2023-12-28T05:50:33;98865.72;;;-3.02;100.00
53011;BME280;42803;55.762;38.084;2023-12-28T05:53:03;98863.19;;;-3.02;100.00
53011;BME280;42803;55.762;38.084;2023-12-28T05:55:32;98866.09;;;-2.99;100.00
53011;BME280;42803;55.762;38.084;2023-12-28T05:58:01;98871.94;;;-3.00;100.00
53011;BME280;42803;55.762;38.084;2023-12-28T06:00:32;98869.19;;;-3.02;100.00
53011;BME280;42803;55.762;38.084;2023-12-28T06:03:02;98872.09;;;-2.99;100.00
53011;BME280;42803;55.762;38.084;2023-12-28T06:05:34;98872.69;;;-3.01;100.00
53011;BME280;42803;55.762;38.084;2023-12-28T06:08:04;98871.94;;;-3.00;100.00
53011;BME280;42803;55.762;38.084;2023-12-28T06:10:35;98886.53;;;-2.99;100.00
53011;BME280;42803;55.762;38.084;2023-12-28T06:13:08;98885.06;;;-2.97;100.00
53011;BME280;42803;55.762;38.084;2023-12-28T06:15:40;98892.38;;;-2.93;100.00
53011;BME280;42803;55.762;38.084;2023-12-28T06:18:09;98892.75;;;-2.90;100.00
53011;BME280;42803;55.762;38.084;2023-12-28T06:20:39;98904.41;;;-2.92;100.00
53011;BME280;42803;55.762;38.084;2023-12-28T06:23:08;98910.41;;;-2.91;100.00
53011;BME280;42803;55.762;38.084;2023-12-28T06:25:37;98905.13;;;-2.93;100.00
53011;BME280;42803;55.762;38.084;2023-12-28T06:28:06;98917.91;;;-2.93;100.00
53011;BME280;42803;55.762;38.084;2023-12-28T06:30:36;98921.53;;;-2.91;100.00
53011;BME280;42803;55.762;38.084;2023-12-28T06:33:06;98921.53;;;-2.91;100.00
53011;BME280;42803;55.762;38.084;2023-12-28T06:35:36;98924.28;;;-2.97;100.00
53011;BME280;42803;55.762;38.084;2023-12-28T06:38:05;98929.94;;;-2.92;100.00
53011;BME280;42803;55.762;38.084;2023-12-28T06:40:34;98929.94;;;-2.92;100.00
53011;BME280;42803;55.762;38.084;2023-12-28T06:43:04;98943.22;;;-2.87;100.00
53011;BME280;42803;55.762;38.084;2023-12-28T06:45:33;98940.50;;;-2.82;100.00
53011;BME280;42803;55.762;38.084;2023-12-28T06:48:03;98952.53;;;-2.81;100.00
53011;BME280;42803;55.762;38.084;2023-12-28T06:50:34;98948.88;;;-2.83;100.00
53011;BME280;42803;55.762;38.084;2023-12-28T06:53:03;98961.28;;;-2.79;100.00
53011;BME280;42803;55.762;38.084;2023-12-28T06:55:33;98961.13;;;-2.80;100.00
53011;BME280;42803;55.762;38.084;2023-12-28T06:58:02;98964.41;;;-2.81;100.00
53011;BME280;42803;55.762;38.084;2023-12-28T07:00:35;98965.69;;;-2.78;100.00
53011;BME280;42803;55.762;38.084;2023-12-28T07:03:04;98973.88;;;-2.73;100.00
53011;BME280;42803;55.762;38.084;2023-12-28T07:05:36;98976.97;;;-2.68;100.00
53011;BME280;42803;55.762;38.084;2023-12-28T07:08:05;98975.91;;;-2.71;100.00
53011;BME280;42803;55.762;38.084;2023-12-28T07:10:35;98964.56;;;-2.73;100.00
53011;BME280;42803;55.762;38.084;2023-12-28T07:13:05;98971.34;;;-2.73;100.00
53011;BME280;42803;55.762;38.084;2023-12-28T07:15:34;98970.44;;;-2.66;100.00
53011;BME280;42803;55.762;38.084;2023-12-28T07:18:04;98975.16;;;-2.62;100.00
53011;BME280;42803;55.762;38.084;2023-12-28T07:20:33;98970.75;;;-2.63;100.00
53011;BME280;42803;55.762;38.084;2023-12-28T07:23:04;98983.91;;;-2.67;100.00
53011;BME280;42803;55.762;38.084;2023-12-28T07:25:34;98993.59;;;-2.65;100.00
53011;BME280;42803;55.762;38.084;2023-12-28T07:28:05;98987.56;;;-2.58;100.00
53011;BME280;42803;55.762;38.084;2023-12-28T07:30:34;98988.66;;;-2.63;100.00
53011;BME280;42803;55.762;38.084;2023-12-28T07:33:04;98995.78;;;-2.61;100.00
53011;BME280;42803;55.762;38.084;2023-12-28T07:35:33;99000.13;;;-2.60;100.00
53011;BME280;42803;55.762;38.084;2023-12-28T07:38:04;99003.59;;;-2.52;100.00
53011;BME280;42803;55.762;38.084;2023-12-28T07:40:33;99008.34;;;-2.48;100.00
53011;BME280;42803;55.762;38.084;2023-12-28T07:43:03;99008.72;;;-2.52;100.00
53011;BME280;42803;55.762;38.084;2023-12-28T07:45:33;99014.19;;;-2.42;100.00
53011;BME280;42803;55.762;38.084;2023-12-28T07:48:07;99010.16;;;-2.33;100.00
53011;BME280;42803;55.762;38.084;2023-12-28T07:50:36;99007.97;;;-2.37;100.00
53011;BME280;42803;55.762;38.084;2023-12-28T07:53:15;99004.88;;;-2.41;100.00
53011;BME280;42803;55.762;38.084;2023-12-28T07:55:45;99008.34;;;-2.48;100.00
53011;BME280;42803;55.762;38.084;2023-12-28T07:58:14;99020.03;;;-2.50;100.00
53011;BME280;42803;55.762;38.084;2023-12-28T08:00:44;99018.22;;;-2.44;100.00
53011;BME280;42803;55.762;38.084;2023-12-28T08:03:13;99021.88;;;-2.42;100.00
53011;BME280;42803;55.762;38.084;2023-12-28T08:05:44;99032.47;;;-2.46;100.00
53011;BME280;42803;55.762;38.084;2023-12-28T08:08:14;99025.16;;;-2.50;100.00
53011;BME280;42803;55.762;38.084;2023-12-28T08:10:44;99034.63;;;-2.56;100.00
53011;BME280;42803;55.762;38.084;2023-12-28T08:13:14;99038.31;;;-2.54;100.00
53011;BME280;42803;55.762;38.084;2023-12-28T08:15:47;99042.31;;;-2.49;100.00
53011;BME280;42803;55.762;38.084;2023-12-28T08:18:16;99038.69;;;-2.44;100.00
53011;BME280;42803;55.762;38.084;2023-12-28T08:21:01;99050.72;;;-2.50;100.00
53011;BME280;42803;55.762;38.084;2023-12-28T08:23:32;99039.00;;;-2.48;100.00
53011;BME280;42803;55.762;38.084;2023-12-28T08:26:02;99043.41;;;-2.40;100.00
53011;BME280;42803;55.762;38.084;2023-12-28T08:28:33;99040.28;;;-2.30;100.00
53011;BME280;42803;55.762;38.084;2023-12-28T08:31:02;99029.53;;;-2.35;100.00
53011;BME280;42803;55.762;38.084;2023-12-28T08:33:32;99032.25;;;-2.33;100.00
53011;BME280;42803;55.762;38.084;2023-12-28T08:36:05;99040.28;;;-2.30;100.00
53011;BME280;42803;55.762;38.084;2023-12-28T08:38:35;99037.00;;;-2.29;100.00
53011;BME280;42803;55.762;38.084;2023-12-28T08:41:06;99048.88;;;-2.23;100.00
53011;BME280;42803;55.762;38.084;2023-12-28T08:43:37;99051.06;;;-2.18;100.00
53011;BME280;42803;55.762;38.084;2023-12-28T08:46:07;99045.56;;;-2.14;100.00
53011;BME280;42803;55.762;38.084;2023-12-28T08:48:37;99049.97;;;-2.28;100.00
53011;BME280;42803;55.762;38.084;2023-12-28T08:51:06;99048.50;;;-2.26;100.00
53011;BME280;42803;55.762;38.084;2023-12-28T08:53:37;99052.34;;;-2.29;100.00
53011;BME280;42803;55.762;38.084;2023-12-28T08:56:13;99058.91;;;-2.31;100.00
53011;BME280;42803;55.762;38.084;2023-12-28T08:58:43;99053.28;;;-2.36;100.00
53011;BME280;42803;55.762;38.084;2023-12-28T09:01:16;99065.69;;;-2.39;100.00
53011;BME280;42803;55.762;38.084;2023-12-28T09:03:46;99061.66;;;-2.37;100.00
53011;BME280;42803;55.762;38.084;2023-12-28T09:06:16;99065.47;;;-2.33;100.00
53011;BME280;42803;55.762;38.084;2023-12-28T09:08:48;99064.94;;;-2.38;100.00
53011;BME280;42803;55.762;38.084;2023-12-28T09:11:18;99074.25;;;-2.46;100.00
53011;BME280;42803;55.762;38.084;2023-12-28T09:13:48;99078.06;;;-2.49;100.00
53011;BME280;42803;55.762;38.084;2023-12-28T09:16:17;99079.34;;;-2.46;100.00
53011;BME280;42803;55.762;38.084;2023-12-28T09:18:47;99077.34;;;-2.41;100.00
53011;BME280;42803;55.762;38.084;2023-12-28T09:21:16;99079.53;;;-2.37;100.00
53011;BME280;42803;55.762;38.084;2023-12-28T09:23:47;99089.22;;;-2.34;100.00
53011;BME280;42803;55.762;38.084;2023-12-28T09:26:16;99090.66;;;-2.29;100.00
53011;BME280;42803;55.762;38.084;2023-12-28T09:28:45;99091.25;;;-2.32;100.00
53011;BME280;42803;55.762;38.084;2023-12-28T09:31:15;99083.56;;;-2.32;100.00
53011;BME280;42803;55.762;38.084;2023-12-28T09:33:45;99091.59;;;-2.22;100.00
53011;BME280;42803;55.762;38.084;2023-12-28T09:36:14;99082.47;;;-2.27;100.00
53011;BME280;42803;55.762;38.084;2023-12-28T09:38:44;99086.47;;;-2.22;100.00
53011;BME280;42803;55.762;38.084;2023-12-28T09:41:16;99092.53;;;-2.35;100.00
53011;BME280;42803;55.762;38.084;2023-12-28T09:43:53;99097.06;;;-2.33;100.00
53011;BME280;42803;55.762;38.084;2023-12-28T09:46:25;99096.72;;;-2.36;100.00
53011;BME280;42803;55.762;38.084;2023-12-28T09:48:55;99101.09;;;-2.42;100.00
53011;BME280;42803;55.762;38.084;2023-12-28T09:51:25;99104.53;;;-2.41;100.00
53011;BME280;42803;55.762;38.084;2023-12-28T09:53:55;99102.16;;;-2.33;100.00
53011;BME280;42803;55.762;38.084;2023-12-28T09:56:28;99096.00;;;-2.21;100.00
53011;BME280;42803;55.762;38.084;2023-12-28T09:58:57;99101.66;;;-2.02;100.00
53011;BME280;42803;55.762;38.084;2023-12-28T10:01:27;99099.63;;;-2.11;100.00
53011;BME280;42803;55.762;38.084;2023-12-28T10:03:57;99104.38;;;-2.14;100.00
53011;BME280;42803;55.762;38.084;2023-12-28T10:06:26;99107.84;;;-2.14;100.00
53011;BME280;42803;55.762;38.084;2023-12-28T10:08:56;99114.41;;;-2.23;100.00
53011;BME280;42803;55.762;38.084;2023-12-28T10:11:25;99110.03;;;-2.03;100.00
53011;BME280;42803;55.762;38.084;2023-12-28T10:13:58;99116.78;;;-2.10;100.00
53011;BME280;42803;55.762;38.084;2023-12-28T10:16:28;99112.78;;;-2.01;100.00
53011;BME280;42803;55.762;38.084;2023-12-28T10:18:58;99113.16;;;-1.98;100.00
53011;BME280;42803;55.762;38.084;2023-12-28T10:21:27;99110.03;;;-1.88;100.00
53011;BME280;42803;55.762;38.084;2023-12-28T10:23:57;99106.16;;;-1.78;100.00
53011;BME280;42803;55.762;38.084;2023-12-28T10:26:27;99110.22;;;-1.94;100.00
53011;BME280;42803;55.762;38.084;2023-12-28T10:29:01;99111.66;;;-1.96;100.00
53011;BME280;42803;55.762;38.084;2023-12-28T10:31:31;99105.28;;;-2.07;100.00
53011;BME280;42803;55.762;38.084;2023-12-28T10:34:01;99101.47;;;-2.25;100.00
53011;BME280;42803;55.762;38.084;2023-12-28T10:36:33;99101.84;;;-2.36;100.00
53011;BME280;42803;55.762;38.084;2023-12-28T10:39:05;99101.81;;;-2.22;100.00
53011;BME280;42803;55.762;38.084;2023-12-28T10:41:41;99088.69;;;-2.17;100.00
53011;BME280;42803;55.762;38.084;2023-12-28T10:44:18;99104.00;;;-2.03;100.00
53011;BME280;42803;55.762;38.084;2023-12-28T10:46:50;99104.34;;;-1.72;100.00
53011;BME280;42803;55.762;38.084;2023-12-28T10:49:25;99106.81;;;-1.36;100.00
53011;BME280;42803;55.762;38.084;2023-12-28T10:51:55;99104.28;;;-1.50;100.00
53011;BME280;42803;55.762;38.084;2023-12-28T10:54:35;99099.94;;;-1.65;100.00
53011;BME280;42803;55.762;38.084;2023-12-28T10:57:11;99107.59;;;-1.58;100.00
53011;BME280;42803;55.762;38.084;2023-12-28T10:59:57;99109.84;;;-1.97;100.00
53011;BME280;42803;55.762;38.084;2023-12-28T11:02:31;99108.00;;;-2.41;100.00
53011;BME280;42803;55.762;38.084;2023-12-28T11:05:08;99120.41;;;-2.65;100.00
53011;BME280;42803;55.762;38.084;2023-12-28T11:07:38;99114.88;;;-2.83;100.00
53011;BME280;42803;55.762;38.084;2023-12-28T11:10:09;99116.84;;;-2.95;100.00
53011;BME280;42803;55.762;38.084;2023-12-28T11:12:39;99121.25;;;-2.93;100.00
53011;BME280;42803;55.762;38.084;2023-12-28T11:15:11;99107.91;;;-2.98;100.00
53011;BME280;42803;55.762;38.084;2023-12-28T11:17:42;99113.00;;;-2.98;100.00
53011;BME280;42803;55.762;38.084;2023-12-28T11:20:12;99121.06;;;-2.88;100.00
53011;BME280;42803;55.762;38.084;2023-12-28T11:22:43;99115.97;;;-2.88;100.00
53011;BME280;42803;55.762;38.084;2023-12-28T11:25:16;99111.94;;;-2.93;100.00
53011;BME280;42803;55.762;38.084;2023-12-28T11:27:46;99134.97;;;-2.86;100.00
53011;BME280;42803;55.762;38.084;2023-12-28T11:30:17;99130.41;;;-2.81;100.00
53011;BME280;42803;55.762;38.084;2023-12-28T11:32:47;99128.03;;;-2.80;100.00
53011;BME280;42803;55.762;38.084;2023-12-28T11:35:16;99126.56;;;-2.85;100.00
53011;BME280;42803;55.762;38.084;2023-12-28T11:37:48;99103.38;;;-2.86;100.00
53011;BME280;42803;55.762;38.084;2023-12-28T11:40:21;99115.25;;;-2.80;100.00
53011;BME280;42803;55.762;38.084;2023-12-28T11:42:52;99123.66;;;-2.81;100.00
53011;BME280;42803;55.762;38.084;2023-12-28T11:45:24;99117.78;;;-2.87;100.00
53011;BME280;42803;55.762;38.084;2023-12-28T11:47:59;99133.09;;;-2.87;100.00
53011;BME280;42803;55.762;38.084;2023-12-28T11:50:30;99127.66;;;-2.90;100.00
53011;BME280;42803;55.762;38.084;2023-12-28T11:53:00;99134.19;;;-2.92;100.00
53011;BME280;42803;55.762;38.084;2023-12-28T11:55:30;99133.31;;;-2.85;100.00
53011;BME280;42803;55.762;38.084;2023-12-28T11:57:59;99129.09;;;-2.92;100.00
53011;BME280;42803;55.762;38.084;2023-12-28T12:00:30;99139.81;;;-3.09;100.00
53011;BME280;42803;55.762;38.084;2023-12-28T12:03:00;99136.28;;;-3.24;100.00
53011;BME280;42803;55.762;38.084;2023-12-28T12:05:29;99139.88;;;-3.29;100.00
53011;BME280;42803;55.762;38.084;2023-12-28T12:07:59;99142.75;;;-3.33;100.00
53011;BME280;42803;55.762;38.084;2023-12-28T12:10:28;99142.41;;;-3.29;100.00
53011;BME280;42803;55.762;38.084;2023-12-28T12:13:00;99150.06;;;-3.29;100.00
53011;BME280;42803;55.762;38.084;2023-12-28T12:15:32;99155.91;;;-3.30;100.00
53011;BME280;42803;55.762;38.084;2023-12-28T12:18:02;99163.56;;;-3.30;100.00
53011;BME280;42803;55.762;38.084;2023-12-28T12:20:31;99156.78;;;-3.36;100.00
53011;BME280;42803;55.762;38.084;2023-12-28T12:23:01;99155.13;;;-3.36;100.00
53011;BME280;42803;55.762;38.084;2023-12-28T12:25:40;99158.75;;;-3.41;100.00
53011;BME280;42803;55.762;38.084;2023-12-28T12:28:09;99158.59;;;-3.42;100.00
53011;BME280;42803;55.762;38.084;2023-12-28T12:30:51;99156.06;;;-3.35;100.00
53011;BME280;42803;55.762;38.084;2023-12-28T12:33:23;99162.78;;;-3.36;100.00
53011;BME280;42803;55.762;38.084;2023-12-28T12:35:55;99165.69;;;-3.40;100.00
53011;BME280;42803;55.762;38.084;2023-12-28T12:38:25;99164.66;;;-3.35;100.00
53011;BME280;42803;55.762;38.084;2023-12-28T12:40:54;99160.28;;;-3.29;100.00
53011;BME280;42803;55.762;38.084;2023-12-28T12:43:24;99173.78;;;-3.30;100.00
53011;BME280;42803;55.762;38.084;2023-12-28T12:45:55;99177.06;;;-3.31;100.00
53011;BME280;42803;55.762;38.084;2023-12-28T12:48:25;99180.88;;;-3.34;100.00
53011;BME280;42803;55.762;38.084;2023-12-28T12:50:54;99175.91;;;-3.40;100.00
53011;BME280;42803;55.762;38.084;2023-12-28T12:53:23;99176.28;;;-3.37;100.00
53011;BME280;42803;55.762;38.084;2023-12-28T12:55:54;99178.84;;;-3.37;100.00